sensor_id;sensor_type;location;lat;lon;timestamp;pressure;altitude;pressure_sealevel;temperature;humidity
60920;BME280;59039;52.108;19.942;2022-08-25T00:01:36;100966.48;;;20.57;84.08
60920;BME280;59039;52.108;19.942;2022-08-25T00:04:04;100970.29;;;20.56;84.36
60920;BME280;59039;52.108;19.942;2022-08-25T00:06:33;100969.67;;;20.56;83.97
60920;BME280;59039;52.108;19.942;2022-08-25T00:08:58;100966.85;;;20.58;84.13
60920;BME280;59039;52.108;19.942;2022-08-25T00:11:27;100970.33;;;20.60;83.94
60920;BME280;59039;52.108;19.942;2022-08-25T00:13:56;100974.45;;;20.62;84.41
60920;BME280;59039;52.108;19.942;2022-08-25T00:16:25;100977.86;;;20.62;84.44
60920;BME280;59039;52.108;19.942;2022-08-25T00:18:56;100979.30;;;20.64;84.21
60920;BME280;59039;52.108;19.942;2022-08-25T00:21:22;100983.52;;;20.66;84.10
60920;BME280;59039;52.108;19.942;2022-08-25T00:23:48;100983.15;;;20.67;84.10
60920;BME280;59039;52.108;19.942;2022-08-25T00:26:14;100988.42;;;20.69;84.08
60920;BME280;59039;52.108;19.942;2022-08-25T00:28:41;100987.91;;;20.70;83.86
60920;BME280;59039;52.108;19.942;2022-08-25T00:31:14;100986.80;;;20.70;84.02
60920;BME280;59039;52.108;19.942;2022-08-25T00:33:40;100985.88;;;20.72;84.27
60920;BME280;59039;52.108;19.942;2022-08-25T00:36:05;100983.15;;;20.73;84.13
60920;BME280;59039;52.108;19.942;2022-08-25T00:38:31;100982.27;;;20.74;84.15
60920;BME280;59039;52.108;19.942;2022-08-25T00:40:57;100980.27;;;20.73;84.28
60920;BME280;59039;52.108;19.942;2022-08-25T00:43:25;100980.06;;;20.74;84.82
60920;BME280;59039;52.108;19.942;2022-08-25T00:45:50;100980.14;;;20.74;84.53
60920;BME280;59039;52.108;19.942;2022-08-25T00:48:15;100982.85;;;20.75;84.43
60920;BME280;59039;52.108;19.942;2022-08-25T00:50:41;100981.55;;;20.75;84.49
60920;BME280;59039;52.108;19.942;2022-08-25T00:53:10;100984.14;;;20.75;84.37
60920;BME280;59039;52.108;19.942;2022-08-25T00:55:37;100984.86;;;20.75;84.02
60920;BME280;59039;52.108;19.942;2022-08-25T00:58:15;100986.73;;;20.75;84.27
60920;BME280;59039;52.108;19.942;2022-08-25T01:01:02;100984.43;;;20.75;84.48
60920;BME280;59039;52.108;19.942;2022-08-25T01:03:31;100982.83;;;20.76;84.26
60920;BME280;59039;52.108;19.942;2022-08-25T01:05:56;100981.00;;;20.76;84.34
60920;BME280;59039;52.108;19.942;2022-08-25T01:08:25;100984.73;;;20.77;84.26
60920;BME280;59039;52.108;19.942;2022-08-25T01:10:51;100987.08;;;20.77;84.25
60920;BME280;59039;52.108;19.942;2022-08-25T01:13:40;100982.06;;;20.78;84.32
60920;BME280;59039;52.108;19.942;2022-08-25T01:16:07;100986.77;;;20.78;84.57
60920;BME280;59039;52.108;19.942;2022-08-25T01:18:46;100985.98;;;20.79;84.68
60920;BME280;59039;52.108;19.942;2022-08-25T01:21:12;100986.66;;;20.79;84.57
60920;BME280;59039;52.108;19.942;2022-08-25T01:23:38;100985.21;;;20.79;84.81
60920;BME280;59039;52.108;19.942;2022-08-25T01:26:08;100979.35;;;20.79;84.96
60920;BME280;59039;52.108;19.942;2022-08-25T01:28:35;100976.03;;;20.79;84.70
60920;BME280;59039;52.108;19.942;2022-08-25T01:31:01;100979.39;;;20.78;84.72
60920;BME280;59039;52.108;19.942;2022-08-25T01:33:27;100981.48;;;20.79;84.66
60920;BME280;59039;52.108;19.942;2022-08-25T01:35:53;100980.79;;;20.79;84.74
60920;BME280;59039;52.108;19.942;2022-08-25T01:38:18;100983.90;;;20.79;84.66
60920;BME280;59039;52.108;19.942;2022-08-25T01:40:44;100982.80;;;20.79;84.56
60920;BME280;59039;52.108;19.942;2022-08-25T01:45:34;100973.01;;;20.78;84.81
60920;BME280;59039;52.108;19.942;2022-08-25T01:48:00;100973.77;;;20.78;84.76
60920;BME280;59039;52.108;19.942;2022-08-25T01:50:26;100978.15;;;20.78;85.01
60920;BME280;59039;52.108;19.942;2022-08-25T01:55:30;100975.14;;;20.77;84.85
60920;BME280;59039;52.108;19.942;2022-08-25T01:57:58;100975.13;;;20.77;84.82
60920;BME280;59039;52.108;19.942;2022-08-25T02:00:23;100973.27;;;20.78;84.82
60920;BME280;59039;52.108;19.942;2022-08-25T02:02:49;100973.77;;;20.78;85.11
60920;BME280;59039;52.108;19.942;2022-08-25T02:05:15;100972.67;;;20.78;84.76
60920;BME280;59039;52.108;19.942;2022-08-25T02:07:43;100974.36;;;20.77;84.64
60920;BME280;59039;52.108;19.942;2022-08-25T02:10:10;100973.61;;;20.77;84.56
60920;BME280;59039;52.108;19.942;2022-08-25T02:12:36;100970.16;;;20.75;84.54
60920;BME280;59039;52.108;19.942;2022-08-25T02:15:06;100970.58;;;20.73;84.54
60920;BME280;59039;52.108;19.942;2022-08-25T02:17:34;100970.58;;;20.72;84.61
60920;BME280;59039;52.108;19.942;2022-08-25T02:20:03;100966.20;;;20.70;84.52
60920;BME280;59039;52.108;19.942;2022-08-25T02:22:29;100967.73;;;20.70;84.51
60920;BME280;59039;52.108;19.942;2022-08-25T02:24:55;100961.73;;;20.70;84.46
60920;BME280;59039;52.108;19.942;2022-08-25T02:27:20;100958.34;;;20.71;84.59
60920;BME280;59039;52.108;19.942;2022-08-25T02:29:45;100957.61;;;20.72;84.71
60920;BME280;59039;52.108;19.942;2022-08-25T02:32:10;100954.81;;;20.72;84.85
60920;BME280;59039;52.108;19.942;2022-08-25T02:34:36;100955.15;;;20.73;84.79
60920;BME280;59039;52.108;19.942;2022-08-25T02:37:01;100955.27;;;20.72;84.75
60920;BME280;59039;52.108;19.942;2022-08-25T02:39:27;100957.11;;;20.68;84.69
60920;BME280;59039;52.108;19.942;2022-08-25T02:41:52;100959.39;;;20.66;84.37
60920;BME280;59039;52.108;19.942;2022-08-25T02:44:18;100959.38;;;20.64;84.38
60920;BME280;59039;52.108;19.942;2022-08-25T02:46:43;100956.58;;;20.65;84.37
60920;BME280;59039;52.108;19.942;2022-08-25T02:49:09;100952.20;;;20.64;84.77
60920;BME280;59039;52.108;19.942;2022-08-25T02:51:34;100947.58;;;20.64;84.99
60920;BME280;59039;52.108;19.942;2022-08-25T02:54:01;100948.20;;;20.64;85.25
60920;BME280;59039;52.108;19.942;2022-08-25T02:56:28;100948.58;;;20.62;84.93
60920;BME280;59039;52.108;19.942;2022-08-25T02:58:54;100944.27;;;20.62;85.09
60920;BME280;59039;52.108;19.942;2022-08-25T03:01:19;100946.45;;;20.61;85.04
60920;BME280;59039;52.108;19.942;2022-08-25T03:03:46;100940.45;;;20.60;85.04
60920;BME280;59039;52.108;19.942;2022-08-25T03:06:13;100941.64;;;20.58;85.19
60920;BME280;59039;52.108;19.942;2022-08-25T03:08:40;100935.82;;;20.55;85.11
60920;BME280;59039;52.108;19.942;2022-08-25T03:11:47;100934.42;;;20.53;85.17
60920;BME280;59039;52.108;19.942;2022-08-25T03:14:12;100940.69;;;20.53;85.59
60920;BME280;59039;52.108;19.942;2022-08-25T03:16:37;100945.73;;;20.54;85.36
60920;BME280;59039;52.108;19.942;2022-08-25T03:19:03;100950.52;;;20.55;85.25
60920;BME280;59039;52.108;19.942;2022-08-25T03:21:32;100951.09;;;20.56;85.09
60920;BME280;59039;52.108;19.942;2022-08-25T03:23:58;100960.27;;;20.58;84.94
60920;BME280;59039;52.108;19.942;2022-08-25T03:26:24;100958.48;;;20.60;84.95
60920;BME280;59039;52.108;19.942;2022-08-25T03:28:49;100965.40;;;20.62;85.09
60920;BME280;59039;52.108;19.942;2022-08-25T03:31:15;100970.81;;;20.64;85.00
60920;BME280;59039;52.108;19.942;2022-08-25T03:33:41;100971.33;;;20.66;85.22
60920;BME280;59039;52.108;19.942;2022-08-25T03:36:07;100972.32;;;20.67;85.45
60920;BME280;59039;52.108;19.942;2022-08-25T03:38:33;100976.71;;;20.69;85.29
60920;BME280;59039;52.108;19.942;2022-08-25T03:40:59;100977.67;;;20.70;85.54
60920;BME280;59039;52.108;19.942;2022-08-25T03:43:24;100976.18;;;20.70;85.61
60920;BME280;59039;52.108;19.942;2022-08-25T03:45:50;100979.45;;;20.70;85.64
60920;BME280;59039;52.108;19.942;2022-08-25T03:48:16;100978.52;;;20.70;85.53
60920;BME280;59039;52.108;19.942;2022-08-25T03:50:48;100973.68;;;20.70;85.42
60920;BME280;59039;52.108;19.942;2022-08-25T03:53:23;100972.52;;;20.71;85.34
60920;BME280;59039;52.108;19.942;2022-08-25T03:55:48;100972.53;;;20.71;85.37
60920;BME280;59039;52.108;19.942;2022-08-25T03:58:14;100973.90;;;20.72;85.21
60920;BME280;59039;52.108;19.942;2022-08-25T04:00:48;100974.02;;;20.72;85.07
60920;BME280;59039;52.108;19.942;2022-08-25T04:03:16;100976.19;;;20.72;85.09
60920;BME280;59039;52.108;19.942;2022-08-25T04:05:41;100971.89;;;20.73;85.24
60920;BME280;59039;52.108;19.942;2022-08-25T04:08:07;100977.38;;;20.73;85.31
60920;BME280;59039;52.108;19.942;2022-08-25T04:10:32;100977.07;;;20.72;85.35
60920;BME280;59039;52.108;19.942;2022-08-25T04:12:58;100979.08;;;20.71;85.34
60920;BME280;59039;52.108;19.942;2022-08-25T04:15:23;100980.44;;;20.71;85.23
60920;BME280;59039;52.108;19.942;2022-08-25T04:17:51;100982.23;;;20.70;85.07
60920;BME280;59039;52.108;19.942;2022-08-25T04:20:17;100979.62;;;20.69;85.15
60920;BME280;59039;52.108;19.942;2022-08-25T04:22:43;100981.36;;;20.68;85.26
60920;BME280;59039;52.108;19.942;2022-08-25T04:25:08;100970.83;;;20.67;85.02
60920;BME280;59039;52.108;19.942;2022-08-25T04:27:35;100968.94;;;20.66;85.11
60920;BME280;59039;52.108;19.942;2022-08-25T04:30:03;100969.96;;;20.65;85.15
60920;BME280;59039;52.108;19.942;2022-08-25T04:32:29;100968.89;;;20.65;85.24
60920;BME280;59039;52.108;19.942;2022-08-25T04:34:54;100969.45;;;20.65;85.13
60920;BME280;59039;52.108;19.942;2022-08-25T04:37:19;100971.29;;;20.65;85.19
60920;BME280;59039;52.108;19.942;2022-08-25T04:39:45;100972.85;;;20.66;85.22
60920;BME280;59039;52.108;19.942;2022-08-25T04:42:10;100971.36;;;20.65;85.23
60920;BME280;59039;52.108;19.942;2022-08-25T04:44:35;100975.61;;;20.65;85.33
60920;BME280;59039;52.108;19.942;2022-08-25T04:47:01;100976.34;;;20.65;85.10
60920;BME280;59039;52.108;19.942;2022-08-25T04:49:26;100979.06;;;20.66;85.37
60920;BME280;59039;52.108;19.942;2022-08-25T04:51:52;100980.08;;;20.67;85.55
60920;BME280;59039;52.108;19.942;2022-08-25T04:54:18;100978.20;;;20.65;85.44
60920;BME280;59039;52.108;19.942;2022-08-25T04:56:43;100973.92;;;20.66;85.60
60920;BME280;59039;52.108;19.942;2022-08-25T04:59:11;100974.85;;;20.66;85.44
60920;BME280;59039;52.108;19.942;2022-08-25T05:01:38;100978.41;;;20.65;85.41
60920;BME280;59039;52.108;19.942;2022-08-25T05:04:07;100980.04;;;20.65;85.53
60920;BME280;59039;52.108;19.942;2022-08-25T05:06:33;100981.48;;;20.66;85.98
60920;BME280;59039;52.108;19.942;2022-08-25T05:08:59;100980.96;;;20.65;85.91
60920;BME280;59039;52.108;19.942;2022-08-25T05:11:25;100978.34;;;20.66;85.95
60920;BME280;59039;52.108;19.942;2022-08-25T05:13:53;100976.85;;;20.66;85.88
60920;BME280;59039;52.108;19.942;2022-08-25T05:16:21;100976.27;;;20.66;85.89
60920;BME280;59039;52.108;19.942;2022-08-25T05:18:47;100978.81;;;20.67;85.84
60920;BME280;59039;52.108;19.942;2022-08-25T05:21:15;100984.89;;;20.68;86.18
60920;BME280;59039;52.108;19.942;2022-08-25T05:23:41;100986.06;;;20.69;86.40
60920;BME280;59039;52.108;19.942;2022-08-25T05:26:10;100981.54;;;20.70;86.22
60920;BME280;59039;52.108;19.942;2022-08-25T05:28:38;100978.78;;;20.71;86.20
60920;BME280;59039;52.108;19.942;2022-08-25T05:31:04;100978.15;;;20.72;86.06
60920;BME280;59039;52.108;19.942;2022-08-25T05:33:29;100979.02;;;20.73;86.09
60920;BME280;59039;52.108;19.942;2022-08-25T05:35:55;100978.32;;;20.74;86.48
60920;BME280;59039;52.108;19.942;2022-08-25T05:38:21;100979.78;;;20.76;86.50
60920;BME280;59039;52.108;19.942;2022-08-25T05:40:51;100976.50;;;20.77;86.80
60920;BME280;59039;52.108;19.942;2022-08-25T05:43:17;100975.05;;;20.78;86.86
60920;BME280;59039;52.108;19.942;2022-08-25T05:45:45;100969.30;;;20.79;86.54
60920;BME280;59039;52.108;19.942;2022-08-25T05:48:10;100971.71;;;20.81;86.87
60920;BME280;59039;52.108;19.942;2022-08-25T05:50:35;100970.02;;;20.82;86.79
60920;BME280;59039;52.108;19.942;2022-08-25T05:53:01;100972.81;;;20.85;86.96
60920;BME280;59039;52.108;19.942;2022-08-25T05:55:26;100969.04;;;20.87;86.84
60920;BME280;59039;52.108;19.942;2022-08-25T05:57:51;100967.77;;;20.90;87.08
60920;BME280;59039;52.108;19.942;2022-08-25T06:00:17;100968.84;;;20.91;87.18
60920;BME280;59039;52.108;19.942;2022-08-25T06:02:42;100972.73;;;20.94;87.28
60920;BME280;59039;52.108;19.942;2022-08-25T06:05:12;100977.42;;;20.96;87.23
60920;BME280;59039;52.108;19.942;2022-08-25T06:07:38;100978.25;;;20.98;87.37
60920;BME280;59039;52.108;19.942;2022-08-25T06:10:07;100975.40;;;21.00;87.16
60920;BME280;59039;52.108;19.942;2022-08-25T06:12:33;100973.48;;;21.01;87.34
60920;BME280;59039;52.108;19.942;2022-08-25T06:14:59;100974.77;;;21.04;87.31
60920;BME280;59039;52.108;19.942;2022-08-25T06:17:24;100978.84;;;21.07;87.31
60920;BME280;59039;52.108;19.942;2022-08-25T06:19:49;100978.50;;;21.10;87.42
60920;BME280;59039;52.108;19.942;2022-08-25T06:22:15;100978.86;;;21.12;87.62
60920;BME280;59039;52.108;19.942;2022-08-25T06:24:40;100976.17;;;21.14;87.44
60920;BME280;59039;52.108;19.942;2022-08-25T06:27:05;100974.82;;;21.16;87.61
60920;BME280;59039;52.108;19.942;2022-08-25T06:29:34;100977.71;;;21.20;87.88
60920;BME280;59039;52.108;19.942;2022-08-25T06:31:59;100976.58;;;21.23;87.65
60920;BME280;59039;52.108;19.942;2022-08-25T06:34:24;100974.23;;;21.25;87.21
60920;BME280;59039;52.108;19.942;2022-08-25T06:36:50;100970.37;;;21.28;87.22
60920;BME280;59039;52.108;19.942;2022-08-25T06:39:15;100965.27;;;21.32;87.35
60920;BME280;59039;52.108;19.942;2022-08-25T06:41:41;100970.08;;;21.36;87.27
60920;BME280;59039;52.108;19.942;2022-08-25T06:44:07;100968.17;;;21.40;87.39
60920;BME280;59039;52.108;19.942;2022-08-25T06:46:33;100965.80;;;21.44;87.51
60920;BME280;59039;52.108;19.942;2022-08-25T06:48:58;100964.23;;;21.47;87.21
60920;BME280;59039;52.108;19.942;2022-08-25T06:51:24;100966.86;;;21.53;87.16
60920;BME280;59039;52.108;19.942;2022-08-25T06:53:50;100969.49;;;21.59;87.03
60920;BME280;59039;52.108;19.942;2022-08-25T06:56:19;100972.98;;;21.63;86.66
60920;BME280;59039;52.108;19.942;2022-08-25T06:58:46;100970.46;;;21.66;86.47
60920;BME280;59039;52.108;19.942;2022-08-25T07:01:15;100968.50;;;21.70;85.76
60920;BME280;59039;52.108;19.942;2022-08-25T07:03:41;100971.10;;;21.74;86.25
60920;BME280;59039;52.108;19.942;2022-08-25T07:06:07;100971.94;;;21.77;85.59
60920;BME280;59039;52.108;19.942;2022-08-25T07:08:33;100973.81;;;21.81;86.03
60920;BME280;59039;52.108;19.942;2022-08-25T07:11:07;100976.36;;;21.86;86.30
60920;BME280;59039;52.108;19.942;2022-08-25T07:13:33;100981.89;;;21.92;86.67
60920;BME280;59039;52.108;19.942;2022-08-25T07:15:58;100979.95;;;21.96;86.37
60920;BME280;59039;52.108;19.942;2022-08-25T07:18:24;100981.23;;;22.00;85.83
60920;BME280;59039;52.108;19.942;2022-08-25T07:20:49;100980.45;;;22.03;85.31
60920;BME280;59039;52.108;19.942;2022-08-25T07:23:15;100982.27;;;22.06;85.61
60920;BME280;59039;52.108;19.942;2022-08-25T07:25:40;100982.38;;;22.09;85.65
60920;BME280;59039;52.108;19.942;2022-08-25T07:28:05;100986.46;;;22.13;85.85
60920;BME280;59039;52.108;19.942;2022-08-25T07:30:31;100989.00;;;22.17;85.74
60920;BME280;59039;52.108;19.942;2022-08-25T07:32:56;100994.04;;;22.21;85.59
60920;BME280;59039;52.108;19.942;2022-08-25T07:35:24;100990.51;;;22.25;85.62
60920;BME280;59039;52.108;19.942;2022-08-25T07:37:52;100988.96;;;22.30;85.47
60920;BME280;59039;52.108;19.942;2022-08-25T07:40:22;100991.74;;;22.37;85.66
60920;BME280;59039;52.108;19.942;2022-08-25T07:42:50;100989.38;;;22.43;84.80
60920;BME280;59039;52.108;19.942;2022-08-25T07:45:17;100989.27;;;22.49;84.40
60920;BME280;59039;52.108;19.942;2022-08-25T07:47:42;100985.02;;;22.54;83.04
60920;BME280;59039;52.108;19.942;2022-08-25T07:50:09;100983.51;;;22.60;83.51
60920;BME280;59039;52.108;19.942;2022-08-25T07:52:35;100982.38;;;22.63;83.36
60920;BME280;59039;52.108;19.942;2022-08-25T07:55:01;100983.04;;;22.68;82.84
60920;BME280;59039;52.108;19.942;2022-08-25T07:57:27;100984.46;;;22.72;82.81
60920;BME280;59039;52.108;19.942;2022-08-25T07:59:52;100980.61;;;22.77;83.12
60920;BME280;59039;52.108;19.942;2022-08-25T08:02:24;100981.08;;;22.81;82.49
60920;BME280;59039;52.108;19.942;2022-08-25T08:04:51;100984.21;;;22.87;82.77
60920;BME280;59039;52.108;19.942;2022-08-25T08:07:23;100985.38;;;22.90;82.32
60920;BME280;59039;52.108;19.942;2022-08-25T08:09:50;100984.89;;;22.93;82.46
60920;BME280;59039;52.108;19.942;2022-08-25T08:12:16;100986.93;;;22.96;82.22
60920;BME280;59039;52.108;19.942;2022-08-25T08:14:42;100986.28;;;22.99;82.23
60920;BME280;59039;52.108;19.942;2022-08-25T08:17:08;100987.81;;;23.03;82.49
60920;BME280;59039;52.108;19.942;2022-08-25T08:19:34;100986.29;;;23.07;83.00
60920;BME280;59039;52.108;19.942;2022-08-25T08:22:00;100989.03;;;23.11;82.77
60920;BME280;59039;52.108;19.942;2022-08-25T08:24:28;100988.36;;;23.14;81.99
60920;BME280;59039;52.108;19.942;2022-08-25T08:26:54;100983.02;;;23.18;82.23
60920;BME280;59039;52.108;19.942;2022-08-25T08:29:20;100978.63;;;23.23;82.01
60920;BME280;59039;52.108;19.942;2022-08-25T08:31:45;100978.17;;;23.26;81.93
60920;BME280;59039;52.108;19.942;2022-08-25T08:34:10;100976.18;;;23.29;81.96
60920;BME280;59039;52.108;19.942;2022-08-25T08:36:35;100982.34;;;23.34;82.44
60920;BME280;59039;52.108;19.942;2022-08-25T08:39:01;100981.11;;;23.39;82.30
60920;BME280;59039;52.108;19.942;2022-08-25T08:41:47;100981.71;;;23.43;82.20
60920;BME280;59039;52.108;19.942;2022-08-25T08:47:20;100980.66;;;23.51;81.66
60920;BME280;59039;52.108;19.942;2022-08-25T08:55:42;100972.84;;;23.61;81.39
60920;BME280;59039;52.108;19.942;2022-08-25T08:58:19;100971.13;;;23.62;80.13
60920;BME280;59039;52.108;19.942;2022-08-25T09:00:49;100966.58;;;23.64;80.31
60920;BME280;59039;52.108;19.942;2022-08-25T09:03:28;100963.13;;;23.68;80.28
60920;BME280;59039;52.108;19.942;2022-08-25T09:05:59;100964.63;;;23.71;80.32
60920;BME280;59039;52.108;19.942;2022-08-25T09:08:26;100962.36;;;23.74;80.14
60920;BME280;59039;52.108;19.942;2022-08-25T09:11:12;100962.98;;;23.78;79.82
60920;BME280;59039;52.108;19.942;2022-08-25T09:14:07;100956.37;;;23.81;79.92
60920;BME280;59039;52.108;19.942;2022-08-25T09:16:52;100957.36;;;23.84;80.33
60920;BME280;59039;52.108;19.942;2022-08-25T09:22:37;100953.54;;;23.89;79.39
60920;BME280;59039;52.108;19.942;2022-08-25T09:25:12;100953.02;;;23.91;78.87
60920;BME280;59039;52.108;19.942;2022-08-25T09:27:54;100949.79;;;23.93;77.97
60920;BME280;59039;52.108;19.942;2022-08-25T09:30:23;100947.85;;;23.94;78.64
60920;BME280;59039;52.108;19.942;2022-08-25T09:32:53;100952.42;;;23.97;79.10
60920;BME280;59039;52.108;19.942;2022-08-25T09:35:22;100948.66;;;23.99;78.59
60920;BME280;59039;52.108;19.942;2022-08-25T09:40:20;100940.21;;;24.01;76.27
60920;BME280;59039;52.108;19.942;2022-08-25T09:42:51;100938.35;;;24.04;77.65
60920;BME280;59039;52.108;19.942;2022-08-25T09:45:40;100935.47;;;24.06;77.64
60920;BME280;59039;52.108;19.942;2022-08-25T09:48:28;100931.93;;;24.08;77.13
60920;BME280;59039;52.108;19.942;2022-08-25T09:51:00;100930.11;;;24.10;77.27
60920;BME280;59039;52.108;19.942;2022-08-25T09:53:26;100934.44;;;24.12;77.83
60920;BME280;59039;52.108;19.942;2022-08-25T09:56:01;100936.52;;;24.15;77.39
60920;BME280;59039;52.108;19.942;2022-08-25T09:58:27;100934.98;;;24.15;76.28
60920;BME280;59039;52.108;19.942;2022-08-25T10:01:01;100935.08;;;24.17;76.90
60920;BME280;59039;52.108;19.942;2022-08-25T10:03:27;100932.60;;;24.20;77.83
60920;BME280;59039;52.108;19.942;2022-08-25T10:05:59;100933.56;;;24.22;77.73
60920;BME280;59039;52.108;19.942;2022-08-25T10:11:11;100932.59;;;24.27;78.00
60920;BME280;59039;52.108;19.942;2022-08-25T10:13:40;100928.94;;;24.29;78.04
60920;BME280;59039;52.108;19.942;2022-08-25T10:16:10;100929.98;;;24.32;77.67
60920;BME280;59039;52.108;19.942;2022-08-25T10:18:36;100926.52;;;24.34;77.34
60920;BME280;59039;52.108;19.942;2022-08-25T10:21:18;100920.17;;;24.37;76.93
60920;BME280;59039;52.108;19.942;2022-08-25T10:23:49;100917.45;;;24.42;77.73
60920;BME280;59039;52.108;19.942;2022-08-25T10:32:11;100910.77;;;24.55;77.00
60920;BME280;59039;52.108;19.942;2022-08-25T10:34:47;100903.35;;;24.58;77.56
60920;BME280;59039;52.108;19.942;2022-08-25T10:37:34;100899.55;;;24.62;77.71
60920;BME280;59039;52.108;19.942;2022-08-25T10:40:38;100896.65;;;24.66;77.88
60920;BME280;59039;52.108;19.942;2022-08-25T10:46:03;100887.86;;;24.74;78.43
60920;BME280;59039;52.108;19.942;2022-08-25T10:48:37;100885.14;;;24.78;77.74
60920;BME280;59039;52.108;19.942;2022-08-25T10:56:16;100877.73;;;24.90;77.35
60920;BME280;59039;52.108;19.942;2022-08-25T11:01:36;100876.64;;;24.98;76.18
60920;BME280;59039;52.108;19.942;2022-08-25T11:04:09;100871.78;;;25.02;76.07
60920;BME280;59039;52.108;19.942;2022-08-25T11:07:10;100872.87;;;25.07;75.52
60920;BME280;59039;52.108;19.942;2022-08-25T11:09:31;100872.00;;;25.10;74.46
60920;BME280;59039;52.108;19.942;2022-08-25T11:12:02;100866.85;;;25.16;75.22
60920;BME280;59039;52.108;19.942;2022-08-25T11:14:35;100864.92;;;25.20;75.82
60920;BME280;59039;52.108;19.942;2022-08-25T11:17:04;100857.19;;;25.25;75.09
60920;BME280;59039;52.108;19.942;2022-08-25T11:19:51;100856.58;;;25.27;74.85
60920;BME280;59039;52.108;19.942;2022-08-25T11:22:43;100854.10;;;25.30;72.86
60920;BME280;59039;52.108;19.942;2022-08-25T11:25:35;100854.64;;;25.35;74.45
60920;BME280;59039;52.108;19.942;2022-08-25T11:30:43;100841.73;;;25.44;74.24
60920;BME280;59039;52.108;19.942;2022-08-25T11:33:15;100849.34;;;25.49;73.65
60920;BME280;59039;52.108;19.942;2022-08-25T11:35:57;100845.61;;;25.53;72.87
60920;BME280;59039;52.108;19.942;2022-08-25T11:44:04;100844.29;;;25.64;72.13
60920;BME280;59039;52.108;19.942;2022-08-25T11:49:51;100835.73;;;25.71;71.54
60920;BME280;59039;52.108;19.942;2022-08-25T11:55:17;100837.13;;;25.80;72.43
60920;BME280;59039;52.108;19.942;2022-08-25T11:57:46;100837.56;;;25.82;71.49
60920;BME280;59039;52.108;19.942;2022-08-25T12:00:36;100834.90;;;25.86;72.38
60920;BME280;59039;52.108;19.942;2022-08-25T12:11:46;100829.55;;;26.00;69.54
60920;BME280;59039;52.108;19.942;2022-08-25T12:27:25;100824.59;;;26.14;67.47
60920;BME280;59039;52.108;19.942;2022-08-25T12:32:49;100826.06;;;26.21;68.32
60920;BME280;59039;52.108;19.942;2022-08-25T12:35:29;100823.92;;;26.25;68.67
60920;BME280;59039;52.108;19.942;2022-08-25T12:40:55;100814.30;;;26.29;68.33
60920;BME280;59039;52.108;19.942;2022-08-25T12:43:28;100811.55;;;26.32;67.61
60920;BME280;59039;52.108;19.942;2022-08-25T12:54:53;100802.60;;;26.42;66.38
60920;BME280;59039;52.108;19.942;2022-08-25T12:57:36;100801.29;;;26.45;66.37
60920;BME280;59039;52.108;19.942;2022-08-25T13:00:14;100799.45;;;26.50;65.16
60920;BME280;59039;52.108;19.942;2022-08-25T13:03:24;100797.48;;;26.54;65.76
60920;BME280;59039;52.108;19.942;2022-08-25T13:11:43;100786.97;;;26.67;64.58
60920;BME280;59039;52.108;19.942;2022-08-25T13:16:39;100785.19;;;26.71;65.34
60920;BME280;59039;52.108;19.942;2022-08-25T13:19:05;100784.09;;;26.72;64.89
60920;BME280;59039;52.108;19.942;2022-08-25T13:21:36;100783.45;;;26.74;64.54
60920;BME280;59039;52.108;19.942;2022-08-25T13:24:04;100783.98;;;26.75;65.03
60920;BME280;59039;52.108;19.942;2022-08-25T13:26:38;100785.19;;;26.75;64.98
60920;BME280;59039;52.108;19.942;2022-08-25T13:31:32;100779.95;;;26.80;64.83
60920;BME280;59039;52.108;19.942;2022-08-25T13:34:01;100776.55;;;26.82;62.47
60920;BME280;59039;52.108;19.942;2022-08-25T13:36:28;100777.27;;;26.85;64.05
60920;BME280;59039;52.108;19.942;2022-08-25T13:39:10;100773.74;;;26.87;64.58
60920;BME280;59039;52.108;19.942;2022-08-25T13:41:35;100768.91;;;26.89;64.85
60920;BME280;59039;52.108;19.942;2022-08-25T13:44:00;100771.92;;;26.90;64.62
60920;BME280;59039;52.108;19.942;2022-08-25T13:46:26;100769.94;;;26.90;64.64
60920;BME280;59039;52.108;19.942;2022-08-25T13:49:02;100769.85;;;26.92;64.97
60920;BME280;59039;52.108;19.942;2022-08-25T13:51:28;100763.05;;;26.93;63.77
60920;BME280;59039;52.108;19.942;2022-08-25T13:53:56;100761.64;;;26.95;64.50
60920;BME280;59039;52.108;19.942;2022-08-25T13:56:24;100760.27;;;26.96;64.08
60920;BME280;59039;52.108;19.942;2022-08-25T13:58:50;100756.70;;;26.97;64.33
60920;BME280;59039;52.108;19.942;2022-08-25T14:01:24;100755.55;;;26.97;62.77
60920;BME280;59039;52.108;19.942;2022-08-25T14:03:51;100747.48;;;26.99;63.31
60920;BME280;59039;52.108;19.942;2022-08-25T14:06:24;100747.45;;;27.01;61.25
60920;BME280;59039;52.108;19.942;2022-08-25T14:11:54;100738.38;;;27.07;62.61
60920;BME280;59039;52.108;19.942;2022-08-25T14:16:51;100738.61;;;27.14;62.40
60920;BME280;59039;52.108;19.942;2022-08-25T14:19:20;100738.57;;;27.16;61.78
60920;BME280;59039;52.108;19.942;2022-08-25T14:21:46;100738.02;;;27.18;62.15
60920;BME280;59039;52.108;19.942;2022-08-25T14:24:21;100739.67;;;27.19;61.05
60920;BME280;59039;52.108;19.942;2022-08-25T14:26:47;100737.02;;;27.21;59.79
60920;BME280;59039;52.108;19.942;2022-08-25T14:29:14;100734.79;;;27.23;59.71
60920;BME280;59039;52.108;19.942;2022-08-25T14:31:41;100731.02;;;27.24;58.50
60920;BME280;59039;52.108;19.942;2022-08-25T14:34:22;100731.50;;;27.27;60.54
60920;BME280;59039;52.108;19.942;2022-08-25T14:36:48;100732.75;;;27.28;60.64